createdAt,value
2023-03-03T00:01:50.783Z,17.48
2023-03-03T00:04:17.501Z,17.70
2023-03-03T00:06:45.870Z,19.70
2023-03-03T00:09:12.587Z,19.08
2023-03-03T00:11:39.349Z,19.42
2023-03-03T00:14:20.601Z,19.25
2023-03-03T00:16:49.201Z,21.48
2023-03-03T00:19:19.396Z,20.58
2023-03-03T00:21:48.444Z,20.50
2023-03-03T00:24:31.829Z,20.63
2023-03-03T00:27:07.548Z,20.92
2023-03-03T00:29:41.837Z,20.05
2023-03-03T00:32:23.975Z,21.42
2023-03-03T00:34:52.428Z,21.40
2023-03-03T00:37:36.002Z,21.08
2023-03-03T00:40:21.971Z,22.00
2023-03-03T00:43:21.929Z,21.85
2023-03-03T00:45:52.654Z,20.83
2023-03-03T00:48:42.886Z,21.25
2023-03-03T00:51:28.213Z,21.73
2023-03-03T00:53:55.900Z,21.95
2023-03-03T00:56:23.362Z,21.80
2023-03-03T00:58:51.015Z,21.55
2023-03-03T01:01:18.737Z,22.05
2023-03-03T01:03:45.778Z,22.30
2023-03-03T01:06:14.248Z,22.17
2023-03-03T01:08:41.133Z,23.75
2023-03-03T01:11:12.198Z,22.90
2023-03-03T01:13:41.552Z,22.23
2023-03-03T01:16:08.568Z,21.67
2023-03-03T01:18:36.137Z,22.95
2023-03-03T01:21:02.975Z,22.85
2023-03-03T01:23:29.668Z,21.25
2023-03-03T01:25:56.575Z,21.88
2023-03-03T01:28:23.333Z,20.92
2023-03-03T01:30:50.866Z,20.70
2023-03-03T01:33:18.095Z,21.42
2023-03-03T01:35:48.857Z,21.65
2023-03-03T01:38:16.290Z,21.00
2023-03-03T01:40:43.059Z,21.48
2023-03-03T01:43:15.351Z,23.92
2023-03-03T01:45:48.108Z,21.10
2023-03-03T01:48:23.067Z,21.25
2023-03-03T01:50:55.909Z,21.65
2023-03-03T01:53:33.256Z,22.30
2023-03-03T01:56:01.658Z,20.75
2023-03-03T01:58:32.157Z,21.05
2023-03-03T02:01:03.020Z,21.10
2023-03-03T02:03:30.848Z,23.02
2023-03-03T02:06:20.458Z,23.83
2023-03-03T02:09:18.136Z,22.15
2023-03-03T02:11:46.837Z,22.13
2023-03-03T02:14:13.948Z,23.50
2023-03-03T02:16:41.440Z,23.48
2023-03-03T02:19:18.005Z,24.08
2023-03-03T02:21:44.724Z,23.95
2023-03-03T02:24:21.080Z,23.70
2023-03-03T02:26:48.645Z,23.75
2023-03-03T02:29:15.428Z,24.10
2023-03-03T02:31:43.191Z,22.77
2023-03-03T02:34:09.939Z,24.08
2023-03-03T02:36:38.678Z,23.15
2023-03-03T02:39:16.301Z,23.52
2023-03-03T02:42:29.362Z,23.80
2023-03-03T02:44:56.071Z,23.08
2023-03-03T02:47:22.838Z,22.20
2023-03-03T02:49:49.540Z,23.38
2023-03-03T02:52:18.683Z,21.30
2023-03-03T02:54:45.480Z,22.65
2023-03-03T02:57:12.220Z,22.92
2023-03-03T02:59:38.988Z,22.83
2023-03-03T03:02:07.397Z,24.10
2023-03-03T03:04:34.275Z,23.75
2023-03-03T03:07:01.147Z,25.90
2023-03-03T03:09:28.581Z,23.00
2023-03-03T03:11:55.488Z,24.35
2023-03-03T03:14:23.395Z,23.45
2023-03-03T03:16:50.224Z,24.13
2023-03-03T03:19:16.926Z,25.02
2023-03-03T03:21:43.694Z,26.02
2023-03-03T03:24:10.472Z,24.85
2023-03-03T03:26:37.284Z,26.02
2023-03-03T03:29:04.124Z,28.25
2023-03-03T03:31:31.941Z,27.45
2023-03-03T03:34:00.589Z,28.63
2023-03-03T03:36:28.350Z,25.23
2023-03-03T03:38:55.126Z,25.83
2023-03-03T03:41:21.860Z,26.60
2023-03-03T03:43:48.645Z,26.80
2023-03-03T03:46:15.506Z,26.50
2023-03-03T03:48:42.215Z,26.60
2023-03-03T03:51:11.448Z,27.23
2023-03-03T03:53:38.136Z,26.55
2023-03-03T03:56:05.105Z,26.33
2023-03-03T03:58:31.844Z,27.23
2023-03-03T04:01:06.639Z,26.33
2023-03-03T04:03:33.923Z,25.85
2023-03-03T04:06:00.796Z,26.58
2023-03-03T04:08:27.537Z,27.58
2023-03-03T04:10:54.243Z,26.08
2023-03-03T04:13:20.972Z,24.83
2023-03-03T04:15:47.827Z,24.65
2023-03-03T04:18:15.040Z,25.88
2023-03-03T04:20:42.001Z,24.95
2023-03-03T04:23:08.754Z,27.17
2023-03-03T04:25:35.592Z,27.77
2023-03-03T04:28:03.985Z,26.75
2023-03-03T04:30:32.453Z,29.60
2023-03-03T04:32:59.138Z,28.98
2023-03-03T04:35:25.878Z,29.27
2023-03-03T04:37:52.633Z,29.60
2023-03-03T04:40:19.561Z,30.27
2023-03-03T04:42:46.609Z,31.90
2023-03-03T04:45:13.376Z,31.45
2023-03-03T04:47:40.459Z,32.05
2023-03-03T04:50:08.056Z,27.50
2023-03-03T04:52:34.828Z,28.15
2023-03-03T04:55:01.540Z,28.52
2023-03-03T04:57:28.279Z,28.02
2023-03-03T04:59:55.425Z,27.02
2023-03-03T05:02:22.211Z,26.33
2023-03-03T05:04:48.976Z,29.17
2023-03-03T05:07:15.748Z,26.95
2023-03-03T05:09:42.590Z,28.80
2023-03-03T05:12:09.363Z,26.27
2023-03-03T05:14:36.130Z,29.70
2023-03-03T05:17:04.686Z,29.20
2023-03-03T05:19:31.496Z,30.25
2023-03-03T05:21:58.775Z,28.20
2023-03-03T05:24:25.517Z,28.17
2023-03-03T05:26:52.264Z,29.25
2023-03-03T05:29:19.109Z,28.58
2023-03-03T05:31:46.028Z,26.83
2023-03-03T05:34:12.800Z,27.88
2023-03-03T05:36:39.528Z,27.73
2023-03-03T05:39:06.758Z,29.33
2023-03-03T05:41:36.758Z,28.33
2023-03-03T05:44:04.038Z,30.88
2023-03-03T05:46:30.860Z,27.08
2023-03-03T05:48:57.658Z,28.63
2023-03-03T05:51:24.424Z,30.05
2023-03-03T05:53:51.223Z,27.80
2023-03-03T05:56:18.164Z,30.17
2023-03-03T05:58:45.281Z,28.55
2023-03-03T06:01:12.697Z,30.80
2023-03-03T06:03:39.439Z,28.77
2023-03-03T06:06:06.522Z,29.15
2023-03-03T06:08:33.493Z,32.83
2023-03-03T06:11:00.315Z,30.88
2023-03-03T06:13:27.230Z,31.02
2023-03-03T06:15:54.009Z,33.03
2023-03-03T06:18:20.749Z,32.20
2023-03-03T06:20:52.034Z,34.60
2023-03-03T06:23:18.748Z,32.72
2023-03-03T06:25:46.099Z,32.00
2023-03-03T06:28:13.298Z,33.03
2023-03-03T06:30:40.686Z,31.52
2023-03-03T06:33:07.797Z,30.30
2023-03-03T06:35:35.196Z,33.92
2023-03-03T06:38:02.261Z,32.40
2023-03-03T06:40:29.008Z,32.53
2023-03-03T06:42:55.874Z,35.35
2023-03-03T06:45:22.687Z,31.05
2023-03-03T06:47:49.399Z,33.13
2023-03-03T06:50:20.281Z,34.78
2023-03-03T06:52:47.202Z,32.22
2023-03-03T06:55:21.409Z,32.75
2023-03-03T06:57:48.374Z,33.72
2023-03-03T07:00:20.385Z,34.35
2023-03-03T07:02:53.617Z,33.05
2023-03-03T07:05:20.983Z,34.05
2023-03-03T07:07:48.076Z,34.17
2023-03-03T07:10:23.591Z,32.25
2023-03-03T07:12:50.431Z,33.17
2023-03-03T07:15:51.112Z,33.78
2023-03-03T07:18:41.797Z,35.33
2023-03-03T07:21:22.395Z,33.92
2023-03-03T07:23:51.432Z,34.20
2023-03-03T07:26:32.741Z,33.85
2023-03-03T07:29:27.936Z,31.30
2023-03-03T07:31:57.866Z,32.25
2023-03-03T07:34:30.208Z,31.92
2023-03-03T07:37:05.195Z,33.05
2023-03-03T07:39:39.000Z,32.22
2023-03-03T07:42:40.514Z,34.05
2023-03-03T07:45:26.374Z,31.92
2023-03-03T07:48:19.300Z,31.58
2023-03-03T07:50:46.032Z,33.45
2023-03-03T07:53:21.942Z,32.70
2023-03-03T07:55:49.661Z,33.55
2023-03-03T07:58:23.187Z,33.63
2023-03-03T08:01:17.952Z,34.33
2023-03-03T08:03:46.762Z,32.60
2023-03-03T08:06:32.755Z,32.65
2023-03-03T08:09:12.171Z,31.33
2023-03-03T08:11:49.420Z,32.33
2023-03-03T08:14:30.292Z,31.23
2023-03-03T08:17:00.487Z,32.92
2023-03-03T08:19:31.194Z,32.15
2023-03-03T08:22:14.922Z,34.80
2023-03-03T08:24:41.584Z,34.10
2023-03-03T08:27:08.631Z,32.25
2023-03-03T08:29:35.479Z,33.28
2023-03-03T08:32:02.320Z,30.98
2023-03-03T08:34:29.227Z,34.13
2023-03-03T08:36:58.203Z,32.95
2023-03-03T08:39:25.153Z,33.47
2023-03-03T08:41:51.924Z,32.63
2023-03-03T08:44:20.334Z,32.40
2023-03-03T08:46:47.417Z,34.50
2023-03-03T08:49:14.516Z,33.83
2023-03-03T08:51:41.333Z,31.27
2023-03-03T08:54:08.237Z,31.75
2023-03-03T08:56:35.040Z,33.28
2023-03-03T08:59:03.151Z,33.67
2023-03-03T09:01:34.887Z,31.27
2023-03-03T09:04:01.711Z,30.77
2023-03-03T09:06:28.416Z,31.30
2023-03-03T09:08:55.227Z,29.30
2023-03-03T09:11:28.244Z,28.07
2023-03-03T09:14:06.348Z,29.05
2023-03-03T09:16:38.077Z,31.70
2023-03-03T09:19:29.669Z,28.63
2023-03-03T09:22:01.732Z,28.23
2023-03-03T09:24:30.537Z,29.97
2023-03-03T09:26:58.979Z,26.87
2023-03-03T09:29:31.880Z,25.13
2023-03-03T09:32:02.279Z,26.47
2023-03-03T09:34:42.982Z,24.97
2023-03-03T09:37:24.591Z,24.77
2023-03-03T09:39:56.018Z,25.63
2023-03-03T09:42:46.022Z,25.00
2023-03-03T09:45:42.831Z,23.70
2023-03-03T09:48:32.005Z,24.37
2023-03-03T09:51:12.094Z,23.23
2023-03-03T09:53:53.857Z,25.37
2023-03-03T09:56:28.398Z,22.53
2023-03-03T09:59:18.191Z,23.67
2023-03-03T10:01:54.083Z,25.13
2023-03-03T10:04:30.069Z,24.23
2023-03-03T10:07:38.175Z,25.13
2023-03-03T10:10:51.325Z,23.03
2023-03-03T10:13:41.980Z,24.00
2023-03-03T10:16:11.559Z,25.73
2023-03-03T10:18:53.018Z,23.37
2023-03-03T10:21:44.812Z,23.40
2023-03-03T10:24:31.630Z,24.00
2023-03-03T10:27:13.056Z,25.07
2023-03-03T10:30:38.299Z,26.93
2023-03-03T10:33:28.462Z,25.37
2023-03-03T10:36:22.972Z,24.47
2023-03-03T10:38:58.809Z,24.90
2023-03-03T10:41:51.469Z,24.23
2023-03-03T10:44:33.242Z,24.70
2023-03-03T10:47:37.524Z,25.60
2023-03-03T10:50:41.838Z,27.03
2023-03-03T10:53:18.997Z,24.57
2023-03-03T10:56:01.009Z,25.13
2023-03-03T10:58:27.808Z,28.67
2023-03-03T11:01:13.622Z,27.20
2023-03-03T11:04:06.289Z,23.83
2023-03-03T11:06:47.792Z,24.07
2023-03-03T11:09:37.852Z,24.30
2023-03-03T11:12:23.279Z,23.87
2023-03-03T11:15:26.205Z,22.07
2023-03-03T11:18:02.429Z,22.00
2023-03-03T11:20:38.592Z,24.10
2023-03-03T11:23:32.532Z,21.67
2023-03-03T11:26:10.251Z,21.10
2023-03-03T11:29:14.344Z,22.17
2023-03-03T11:31:53.096Z,21.63
2023-03-03T11:34:48.126Z,22.10
2023-03-03T11:37:51.627Z,20.93
2023-03-03T11:40:25.473Z,19.10
2023-03-03T11:42:58.266Z,21.20
2023-03-03T11:45:39.834Z,20.90
2023-03-03T11:48:18.558Z,21.53
2023-03-03T11:50:53.703Z,21.97
2023-03-03T11:53:59.574Z,21.20
2023-03-03T11:56:47.086Z,21.90
2023-03-03T11:59:55.352Z,20.60
2023-03-03T12:02:34.225Z,20.70
2023-03-03T12:05:35.933Z,21.67
2023-03-03T12:08:16.002Z,20.53
2023-03-03T12:11:06.340Z,19.50
2023-03-03T12:14:20.200Z,19.13
2023-03-03T12:17:19.775Z,19.70
2023-03-03T12:19:52.800Z,20.23
2023-03-03T12:22:42.073Z,19.37
2023-03-03T12:25:45.821Z,20.30
2023-03-03T12:28:38.458Z,20.80
2023-03-03T12:31:35.338Z,21.50
2023-03-03T12:34:33.018Z,22.40
2023-03-03T12:37:21.357Z,21.40
2023-03-03T12:40:09.981Z,20.33
2023-03-03T12:42:42.903Z,20.30
2023-03-03T12:45:31.463Z,21.80
2023-03-03T12:48:04.810Z,20.93
2023-03-03T12:50:46.364Z,20.33
2023-03-03T12:53:25.151Z,20.93
2023-03-03T12:56:15.834Z,19.90
2023-03-03T12:59:11.531Z,19.90
2023-03-03T13:01:47.093Z,20.77
2023-03-03T13:04:37.555Z,19.90
2023-03-03T13:07:26.085Z,20.50
2023-03-03T13:10:03.897Z,21.23
2023-03-03T13:12:56.909Z,21.60
2023-03-03T13:15:32.275Z,19.03
2023-03-03T13:18:08.192Z,19.00
2023-03-03T13:20:40.127Z,20.80
2023-03-03T13:23:51.904Z,19.97
2023-03-03T13:26:27.404Z,18.50
2023-03-03T13:28:59.873Z,16.93
2023-03-03T13:31:52.157Z,17.43
2023-03-03T13:34:37.027Z,19.67
2023-03-03T13:37:22.605Z,19.20
2023-03-03T13:40:12.791Z,20.90
2023-03-03T13:43:08.982Z,19.33
2023-03-03T13:45:54.099Z,19.23
2023-03-03T13:48:28.553Z,17.73
2023-03-03T13:51:04.505Z,19.40
2023-03-03T13:53:34.197Z,18.20
2023-03-03T13:56:12.316Z,18.40
2023-03-03T13:59:02.022Z,18.07
2023-03-03T14:01:58.033Z,18.37
2023-03-03T14:04:27.672Z,18.80
2023-03-03T14:07:03.265Z,19.27
2023-03-03T14:09:54.886Z,19.10
2023-03-03T14:12:33.509Z,18.20
2023-03-03T14:15:16.594Z,18.70
2023-03-03T14:18:24.749Z,19.27
2023-03-03T14:21:00.100Z,18.80
2023-03-03T14:23:51.718Z,19.60
2023-03-03T14:26:18.605Z,18.53
2023-03-03T14:28:51.164Z,20.53
2023-03-03T14:31:39.696Z,16.73
2023-03-03T14:34:27.310Z,18.77
2023-03-03T14:37:08.333Z,19.30
2023-03-03T14:39:37.949Z,19.80
2023-03-03T14:42:30.626Z,19.30
2023-03-03T14:45:01.076Z,19.50
2023-03-03T14:47:28.932Z,18.67
2023-03-03T14:50:00.927Z,20.10
2023-03-03T14:52:29.758Z,18.07
2023-03-03T14:55:05.099Z,18.10
2023-03-03T14:57:51.646Z,18.77
2023-03-03T15:00:30.971Z,18.13
2023-03-03T15:03:23.999Z,18.83
2023-03-03T15:05:56.336Z,18.57
2023-03-03T15:08:31.282Z,18.50
2023-03-03T15:11:14.134Z,19.00
2023-03-03T15:13:41.065Z,19.07
2023-03-03T15:16:20.780Z,18.90
2023-03-03T15:19:00.533Z,20.63
2023-03-03T15:21:32.325Z,18.20
2023-03-03T15:24:25.282Z,19.00
2023-03-03T15:27:26.809Z,19.77
2023-03-03T15:30:14.579Z,19.87
2023-03-03T15:32:50.800Z,19.63
2023-03-03T15:35:43.174Z,19.20
2023-03-03T15:38:41.417Z,21.63
2023-03-03T15:41:32.258Z,21.07
2023-03-03T15:44:07.173Z,21.53
2023-03-03T15:46:48.993Z,21.07
2023-03-03T15:49:47.942Z,19.60
2023-03-03T15:52:22.708Z,19.00
2023-03-03T15:55:22.179Z,20.17
2023-03-03T15:58:03.617Z,20.00
2023-03-03T16:00:30.270Z,20.53
2023-03-03T16:03:02.300Z,21.33
2023-03-03T16:05:37.394Z,21.00
2023-03-03T16:08:26.042Z,20.27
2023-03-03T16:11:13.018Z,19.93
2023-03-03T16:14:09.961Z,21.43
2023-03-03T16:16:57.039Z,21.97
2023-03-03T16:19:34.918Z,20.00
2023-03-03T16:22:43.940Z,20.57
2023-03-03T16:25:20.374Z,23.63
2023-03-03T16:27:59.671Z,22.43
2023-03-03T16:30:35.244Z,21.47
2023-03-03T16:33:32.702Z,23.00
2023-03-03T16:36:17.309Z,27.53
2023-03-03T16:38:51.115Z,25.23
2023-03-03T16:41:29.182Z,26.97
2023-03-03T16:44:13.727Z,21.17
2023-03-03T16:46:47.579Z,20.60
2023-03-03T16:49:33.562Z,19.90
2023-03-03T16:52:27.568Z,25.93
2023-03-03T16:55:28.162Z,20.03
2023-03-03T16:58:13.765Z,23.57
2023-03-03T17:00:59.367Z,27.17
2023-03-03T17:03:37.921Z,26.37
2023-03-03T17:06:27.861Z,29.27
2023-03-03T17:09:32.980Z,29.53
2023-03-03T17:12:01.487Z,26.93
2023-03-03T17:14:54.315Z,32.47
2023-03-03T17:17:21.011Z,24.80
2023-03-03T17:20:14.008Z,21.40
2023-03-03T17:23:04.170Z,21.23
2023-03-03T17:26:02.221Z,19.70
2023-03-03T17:28:39.968Z,22.43
2023-03-03T17:31:12.759Z,22.20
2023-03-03T17:34:07.821Z,19.90
2023-03-03T17:36:53.305Z,20.20
2023-03-03T17:39:41.173Z,21.07
2023-03-03T17:42:10.728Z,19.77
2023-03-03T17:44:47.670Z,22.93
2023-03-03T17:47:30.983Z,23.10
2023-03-03T17:50:42.951Z,30.17
2023-03-03T17:53:15.652Z,23.60
2023-03-03T17:56:07.836Z,23.60
2023-03-03T17:59:19.778Z,25.30
2023-03-03T18:02:15.253Z,29.00
2023-03-03T18:05:08.059Z,37.80
2023-03-03T18:07:56.140Z,24.90
2023-03-03T18:10:25.839Z,22.90
2023-03-03T18:13:05.751Z,21.95
2023-03-03T18:15:58.786Z,23.38
2023-03-03T18:18:35.864Z,21.88
2023-03-03T18:21:27.474Z,23.00
2023-03-03T18:24:34.231Z,22.40
2023-03-03T18:27:29.120Z,23.42
2023-03-03T18:30:08.104Z,22.23
2023-03-03T18:32:47.800Z,20.33
2023-03-03T18:35:33.037Z,20.92
2023-03-03T18:38:18.011Z,20.60
2023-03-03T18:41:00.101Z,19.88
2023-03-03T18:43:48.565Z,20.38
2023-03-03T18:46:24.251Z,20.77
2023-03-03T18:49:08.540Z,20.65
2023-03-03T18:51:35.460Z,19.98
2023-03-03T18:54:12.147Z,19.40
2023-03-03T18:56:59.937Z,20.80
2023-03-03T18:59:36.075Z,20.02
2023-03-03T19:02:17.599Z,20.17
2023-03-03T19:05:04.812Z,18.92
2023-03-03T19:07:40.790Z,19.80
2023-03-03T19:10:22.755Z,21.55
2023-03-03T19:12:57.843Z,21.33
2023-03-03T19:15:31.082Z,20.20
2023-03-03T19:18:05.833Z,20.40
2023-03-03T19:21:01.249Z,21.02
2023-03-03T19:24:00.001Z,21.42
2023-03-03T19:26:29.373Z,19.05
2023-03-03T19:29:14.657Z,20.98
2023-03-03T19:31:58.432Z,22.95
2023-03-03T19:34:46.584Z,21.08
2023-03-03T19:37:36.814Z,22.85
2023-03-03T19:40:35.511Z,21.58
2023-03-03T19:43:16.478Z,21.88
2023-03-03T19:46:20.214Z,22.75
2023-03-03T19:49:02.575Z,23.52
2023-03-03T19:51:41.974Z,24.90
2023-03-03T19:54:23.469Z,23.65
2023-03-03T19:56:54.620Z,23.25
2023-03-03T19:59:59.613Z,22.38
2023-03-03T20:02:57.148Z,23.63
2023-03-03T20:05:40.686Z,23.45
2023-03-03T20:08:48.808Z,23.88
2023-03-03T20:11:21.656Z,25.15
2023-03-03T20:14:13.924Z,27.25
2023-03-03T20:16:42.861Z,25.55
2023-03-03T20:19:35.089Z,24.65
2023-03-03T20:22:28.036Z,25.27
2023-03-03T20:25:11.704Z,25.48
2023-03-03T20:28:14.082Z,23.98
2023-03-03T20:31:33.148Z,24.48
2023-03-03T20:34:15.213Z,23.73
2023-03-03T20:37:09.665Z,26.52
2023-03-03T20:39:48.304Z,31.80
2023-03-03T20:42:47.810Z,29.42
2023-03-03T20:45:29.635Z,25.98
2023-03-03T20:48:02.117Z,26.40
2023-03-03T20:50:53.524Z,25.13
2023-03-03T20:53:53.946Z,29.98
2023-03-03T20:56:32.043Z,27.98
2023-03-03T20:59:01.590Z,26.98
2023-03-03T21:01:42.044Z,22.83
2023-03-03T21:04:29.053Z,23.95
2023-03-03T21:06:56.635Z,23.50
2023-03-03T21:09:38.778Z,22.75
2023-03-03T21:12:31.106Z,24.17
2023-03-03T21:15:36.239Z,25.42
2023-03-03T21:18:24.203Z,21.30
2023-03-03T21:20:51.710Z,23.08
2023-03-03T21:23:20.716Z,22.45
2023-03-03T21:25:56.412Z,25.23
2023-03-03T21:28:31.990Z,24.10
2023-03-03T21:31:13.313Z,24.92
2023-03-03T21:33:47.785Z,26.52
2023-03-03T21:36:18.827Z,26.42
2023-03-03T21:38:46.816Z,23.95
2023-03-03T21:41:15.004Z,24.60
2023-03-03T21:43:44.870Z,24.90
2023-03-03T21:46:12.616Z,30.00
2023-03-03T21:48:43.067Z,40.95
2023-03-03T21:51:12.092Z,52.88
2023-03-03T21:53:38.757Z,58.40
2023-03-03T21:56:05.988Z,55.95
2023-03-03T21:58:32.794Z,55.22
2023-03-03T22:00:59.621Z,41.35
2023-03-03T22:03:26.678Z,39.00
2023-03-03T22:05:53.995Z,37.35
2023-03-03T22:08:23.420Z,31.55
2023-03-03T22:10:53.956Z,32.50
2023-03-03T22:13:20.709Z,29.40
2023-03-03T22:15:48.450Z,28.25
2023-03-03T22:18:18.272Z,24.15
2023-03-03T22:20:48.845Z,21.15
2023-03-03T22:23:15.961Z,30.83
2023-03-03T22:25:42.749Z,32.75
2023-03-03T22:28:09.483Z,22.45
2023-03-03T22:30:36.678Z,21.05
2023-03-03T22:33:03.657Z,22.20
2023-03-03T22:35:30.659Z,21.05
2023-03-03T22:37:57.623Z,20.60
2023-03-03T22:40:24.598Z,19.80
2023-03-03T22:42:51.806Z,19.17
2023-03-03T22:45:18.753Z,18.90
2023-03-03T22:47:45.607Z,19.63
2023-03-03T22:50:13.157Z,19.83
2023-03-03T22:52:39.920Z,20.58
2023-03-03T22:55:07.319Z,21.73
2023-03-03T22:57:34.080Z,22.08
2023-03-03T23:00:02.479Z,26.65
2023-03-03T23:02:29.944Z,25.33
2023-03-03T23:05:01.033Z,23.17
2023-03-03T23:07:29.198Z,28.23
2023-03-03T23:09:56.528Z,24.85
2023-03-03T23:12:24.404Z,25.83
2023-03-03T23:14:51.121Z,23.08
2023-03-03T23:17:17.933Z,21.95
2023-03-03T23:19:46.378Z,28.35
2023-03-03T23:22:16.328Z,27.30
2023-03-03T23:24:43.944Z,25.17
2023-03-03T23:27:11.316Z,22.85
2023-03-03T23:29:38.830Z,21.90
2023-03-03T23:32:06.156Z,19.67
2023-03-03T23:34:33.450Z,20.65
2023-03-03T23:37:00.210Z,18.27
2023-03-03T23:39:26.964Z,15.30
2023-03-03T23:41:53.638Z,18.20
2023-03-03T23:44:20.366Z,15.52
2023-03-03T23:46:47.184Z,18.25
2023-03-03T23:49:13.991Z,20.98
2023-03-03T23:51:40.792Z,17.15
2023-03-03T23:54:07.649Z,16.20
2023-03-03T23:56:34.359Z,16.42
2023-03-03T23:59:01.139Z,16.80
